sensor_id;sensor_type;location;lat;lon;timestamp;P1;durP1;ratioP1;P2;durP2;ratioP2
11533;SDS011;5823;50.588;8.462;2023-07-20T00:00:52;0.00;;;0.00;;
11533;SDS011;5823;50.588;8.462;2023-07-20T00:03:19;0.20;;;0.20;;
11533;SDS011;5823;50.588;8.462;2023-07-20T00:05:50;0.15;;;0.15;;
11533;SDS011;5823;50.588;8.462;2023-07-20T00:08:16;0.30;;;0.30;;
11533;SDS011;5823;50.588;8.462;2023-07-20T00:10:43;0.17;;;0.17;;
11533;SDS011;5823;50.588;8.462;2023-07-20T00:13:11;0.00;;;0.00;;
11533;SDS011;5823;50.588;8.462;2023-07-20T00:15:37;0.20;;;0.20;;
11533;SDS011;5823;50.588;8.462;2023-07-20T00:18:04;0.10;;;0.10;;
11533;SDS011;5823;50.588;8.462;2023-07-20T00:20:30;0.20;;;0.20;;
11533;SDS011;5823;50.588;8.462;2023-07-20T00:22:56;0.10;;;0.10;;
11533;SDS011;5823;50.588;8.462;2023-07-20T00:25:23;0.10;;;0.10;;
11533;SDS011;5823;50.588;8.462;2023-07-20T00:27:49;0.20;;;0.20;;
11533;SDS011;5823;50.588;8.462;2023-07-20T00:30:17;0.15;;;0.15;;
11533;SDS011;5823;50.588;8.462;2023-07-20T00:32:44;0.28;;;0.28;;
11533;SDS011;5823;50.588;8.462;2023-07-20T00:35:10;0.30;;;0.30;;
11533;SDS011;5823;50.588;8.462;2023-07-20T00:37:37;0.35;;;0.35;;
11533;SDS011;5823;50.588;8.462;2023-07-20T00:40:03;0.57;;;0.40;;
11533;SDS011;5823;50.588;8.462;2023-07-20T00:42:30;0.20;;;0.20;;
11533;SDS011;5823;50.588;8.462;2023-07-20T00:44:57;0.10;;;0.10;;
11533;SDS011;5823;50.588;8.462;2023-07-20T00:47:24;0.40;;;0.32;;
11533;SDS011;5823;50.588;8.462;2023-07-20T00:49:50;0.13;;;0.13;;
11533;SDS011;5823;50.588;8.462;2023-07-20T00:52:17;0.22;;;0.20;;
11533;SDS011;5823;50.588;8.462;2023-07-20T00:54:44;0.10;;;0.10;;
11533;SDS011;5823;50.588;8.462;2023-07-20T00:57:10;0.15;;;0.15;;
11533;SDS011;5823;50.588;8.462;2023-07-20T00:59:40;0.10;;;0.10;;
11533;SDS011;5823;50.588;8.462;2023-07-20T01:02:06;0.10;;;0.10;;
11533;SDS011;5823;50.588;8.462;2023-07-20T01:04:33;0.20;;;0.20;;
11533;SDS011;5823;50.588;8.462;2023-07-20T01:07:01;0.20;;;0.20;;
11533;SDS011;5823;50.588;8.462;2023-07-20T01:09:34;0.28;;;0.20;;
11533;SDS011;5823;50.588;8.462;2023-07-20T01:12:06;0.20;;;0.20;;
11533;SDS011;5823;50.588;8.462;2023-07-20T01:14:34;0.20;;;0.20;;
11533;SDS011;5823;50.588;8.462;2023-07-20T01:17:01;0.10;;;0.10;;
11533;SDS011;5823;50.588;8.462;2023-07-20T01:19:27;0.20;;;0.20;;
11533;SDS011;5823;50.588;8.462;2023-07-20T01:21:57;0.10;;;0.10;;
11533;SDS011;5823;50.588;8.462;2023-07-20T01:27:20;0.10;;;0.10;;
11533;SDS011;5823;50.588;8.462;2023-07-20T01:29:54;0.10;;;0.10;;
11533;SDS011;5823;50.588;8.462;2023-07-20T01:32:23;0.30;;;0.30;;
11533;SDS011;5823;50.588;8.462;2023-07-20T01:34:50;0.22;;;0.22;;
11533;SDS011;5823;50.588;8.462;2023-07-20T01:37:18;0.17;;;0.17;;
11533;SDS011;5823;50.588;8.462;2023-07-20T01:39:45;0.20;;;0.20;;
11533;SDS011;5823;50.588;8.462;2023-07-20T01:42:11;0.20;;;0.20;;
11533;SDS011;5823;50.588;8.462;2023-07-20T01:44:38;0.20;;;0.20;;
11533;SDS011;5823;50.588;8.462;2023-07-20T01:47:04;0.20;;;0.20;;
11533;SDS011;5823;50.588;8.462;2023-07-20T01:49:32;0.13;;;0.13;;
11533;SDS011;5823;50.588;8.462;2023-07-20T01:51:58;0.10;;;0.10;;
11533;SDS011;5823;50.588;8.462;2023-07-20T01:54:25;0.10;;;0.10;;
11533;SDS011;5823;50.588;8.462;2023-07-20T01:56:51;0.30;;;0.30;;
11533;SDS011;5823;50.588;8.462;2023-07-20T01:59:17;0.40;;;0.30;;
11533;SDS011;5823;50.588;8.462;2023-07-20T02:01:43;0.17;;;0.17;;
11533;SDS011;5823;50.588;8.462;2023-07-20T02:04:09;0.10;;;0.10;;
11533;SDS011;5823;50.588;8.462;2023-07-20T02:06:37;0.30;;;0.30;;
11533;SDS011;5823;50.588;8.462;2023-07-20T02:09:03;0.40;;;0.32;;
11533;SDS011;5823;50.588;8.462;2023-07-20T02:11:29;0.20;;;0.20;;
11533;SDS011;5823;50.588;8.462;2023-07-20T02:13:56;0.10;;;0.10;;
11533;SDS011;5823;50.588;8.462;2023-07-20T02:16:22;0.10;;;0.10;;
11533;SDS011;5823;50.588;8.462;2023-07-20T02:18:48;0.20;;;0.20;;
11533;SDS011;5823;50.588;8.462;2023-07-20T02:21:14;0.30;;;0.30;;
11533;SDS011;5823;50.588;8.462;2023-07-20T02:23:42;0.10;;;0.10;;
11533;SDS011;5823;50.588;8.462;2023-07-20T02:26:08;0.20;;;0.20;;
11533;SDS011;5823;50.588;8.462;2023-07-20T02:28:35;0.17;;;0.17;;
11533;SDS011;5823;50.588;8.462;2023-07-20T02:31:01;0.13;;;0.13;;
11533;SDS011;5823;50.588;8.462;2023-07-20T02:33:27;0.20;;;0.20;;
11533;SDS011;5823;50.588;8.462;2023-07-20T02:35:53;0.20;;;0.20;;
11533;SDS011;5823;50.588;8.462;2023-07-20T02:38:20;0.15;;;0.15;;
11533;SDS011;5823;50.588;8.462;2023-07-20T02:40:47;0.28;;;0.28;;
11533;SDS011;5823;50.588;8.462;2023-07-20T02:43:14;0.38;;;0.32;;
11533;SDS011;5823;50.588;8.462;2023-07-20T02:45:40;0.55;;;0.20;;
11533;SDS011;5823;50.588;8.462;2023-07-20T02:48:06;0.20;;;0.20;;
11533;SDS011;5823;50.588;8.462;2023-07-20T02:50:33;0.17;;;0.17;;
11533;SDS011;5823;50.588;8.462;2023-07-20T02:53:00;0.30;;;0.20;;
11533;SDS011;5823;50.588;8.462;2023-07-20T02:55:26;0.20;;;0.20;;
11533;SDS011;5823;50.588;8.462;2023-07-20T02:57:54;0.20;;;0.20;;
11533;SDS011;5823;50.588;8.462;2023-07-20T03:00:20;0.20;;;0.20;;
11533;SDS011;5823;50.588;8.462;2023-07-20T03:02:48;0.13;;;0.13;;
11533;SDS011;5823;50.588;8.462;2023-07-20T03:05:20;0.20;;;0.20;;
11533;SDS011;5823;50.588;8.462;2023-07-20T03:07:46;0.22;;;0.22;;
11533;SDS011;5823;50.588;8.462;2023-07-20T03:10:13;0.30;;;0.30;;
11533;SDS011;5823;50.588;8.462;2023-07-20T03:12:39;0.20;;;0.20;;
11533;SDS011;5823;50.588;8.462;2023-07-20T03:15:08;0.17;;;0.17;;
11533;SDS011;5823;50.588;8.462;2023-07-20T03:17:34;0.28;;;0.28;;
11533;SDS011;5823;50.588;8.462;2023-07-20T03:20:00;0.28;;;0.17;;
11533;SDS011;5823;50.588;8.462;2023-07-20T03:22:28;0.28;;;0.28;;
11533;SDS011;5823;50.588;8.462;2023-07-20T03:24:54;0.28;;;0.28;;
11533;SDS011;5823;50.588;8.462;2023-07-20T03:27:20;0.20;;;0.20;;
11533;SDS011;5823;50.588;8.462;2023-07-20T03:29:47;0.38;;;0.38;;
11533;SDS011;5823;50.588;8.462;2023-07-20T03:32:14;0.30;;;0.30;;
11533;SDS011;5823;50.588;8.462;2023-07-20T03:34:40;0.17;;;0.17;;
11533;SDS011;5823;50.588;8.462;2023-07-20T03:37:07;0.10;;;0.10;;
11533;SDS011;5823;50.588;8.462;2023-07-20T03:39:33;0.20;;;0.20;;
11533;SDS011;5823;50.588;8.462;2023-07-20T03:41:59;0.22;;;0.22;;
11533;SDS011;5823;50.588;8.462;2023-07-20T03:44:25;0.20;;;0.20;;
11533;SDS011;5823;50.588;8.462;2023-07-20T03:46:52;0.10;;;0.10;;
11533;SDS011;5823;50.588;8.462;2023-07-20T03:49:19;0.28;;;0.28;;
11533;SDS011;5823;50.588;8.462;2023-07-20T03:51:45;0.38;;;0.38;;
11533;SDS011;5823;50.588;8.462;2023-07-20T03:54:12;0.45;;;0.30;;
11533;SDS011;5823;50.588;8.462;2023-07-20T03:56:38;0.50;;;0.20;;
11533;SDS011;5823;50.588;8.462;2023-07-20T03:59:04;0.50;;;0.50;;
11533;SDS011;5823;50.588;8.462;2023-07-20T04:01:30;0.47;;;0.45;;
11533;SDS011;5823;50.588;8.462;2023-07-20T04:04:01;0.20;;;0.20;;
11533;SDS011;5823;50.588;8.462;2023-07-20T04:06:29;0.20;;;0.20;;
11533;SDS011;5823;50.588;8.462;2023-07-20T04:08:55;0.38;;;0.38;;
11533;SDS011;5823;50.588;8.462;2023-07-20T04:11:21;0.22;;;0.22;;
11533;SDS011;5823;50.588;8.462;2023-07-20T04:13:48;0.38;;;0.38;;
11533;SDS011;5823;50.588;8.462;2023-07-20T04:16:14;0.82;;;0.47;;
11533;SDS011;5823;50.588;8.462;2023-07-20T04:18:40;0.65;;;0.60;;
11533;SDS011;5823;50.588;8.462;2023-07-20T04:21:07;0.73;;;0.73;;
11533;SDS011;5823;50.588;8.462;2023-07-20T04:23:34;0.32;;;0.32;;
11533;SDS011;5823;50.588;8.462;2023-07-20T04:26:01;0.20;;;0.20;;
11533;SDS011;5823;50.588;8.462;2023-07-20T04:28:28;0.25;;;0.25;;
11533;SDS011;5823;50.588;8.462;2023-07-20T04:30:54;0.50;;;0.38;;
11533;SDS011;5823;50.588;8.462;2023-07-20T04:33:20;0.40;;;0.40;;
11533;SDS011;5823;50.588;8.462;2023-07-20T04:35:47;0.30;;;0.30;;
11533;SDS011;5823;50.588;8.462;2023-07-20T04:38:14;0.22;;;0.22;;
11533;SDS011;5823;50.588;8.462;2023-07-20T04:40:44;0.13;;;0.13;;
11533;SDS011;5823;50.588;8.462;2023-07-20T04:43:10;0.38;;;0.38;;
11533;SDS011;5823;50.588;8.462;2023-07-20T04:45:36;0.40;;;0.40;;
11533;SDS011;5823;50.588;8.462;2023-07-20T04:48:02;0.50;;;0.50;;
11533;SDS011;5823;50.588;8.462;2023-07-20T04:50:29;0.40;;;0.40;;
11533;SDS011;5823;50.588;8.462;2023-07-20T04:52:55;0.30;;;0.30;;
11533;SDS011;5823;50.588;8.462;2023-07-20T04:55:21;0.20;;;0.20;;
11533;SDS011;5823;50.588;8.462;2023-07-20T04:57:49;0.50;;;0.50;;
11533;SDS011;5823;50.588;8.462;2023-07-20T05:00:15;0.25;;;0.20;;
11533;SDS011;5823;50.588;8.462;2023-07-20T05:02:42;0.45;;;0.45;;
11533;SDS011;5823;50.588;8.462;2023-07-20T05:05:08;0.20;;;0.20;;
11533;SDS011;5823;50.588;8.462;2023-07-20T05:07:35;0.25;;;0.25;;
11533;SDS011;5823;50.588;8.462;2023-07-20T05:10:01;0.30;;;0.22;;
11533;SDS011;5823;50.588;8.462;2023-07-20T05:12:27;0.43;;;0.30;;
11533;SDS011;5823;50.588;8.462;2023-07-20T05:14:55;0.20;;;0.20;;
11533;SDS011;5823;50.588;8.462;2023-07-20T05:17:21;0.30;;;0.30;;
11533;SDS011;5823;50.588;8.462;2023-07-20T05:19:48;0.30;;;0.30;;
11533;SDS011;5823;50.588;8.462;2023-07-20T05:22:14;0.20;;;0.20;;
11533;SDS011;5823;50.588;8.462;2023-07-20T05:24:40;0.47;;;0.43;;
11533;SDS011;5823;50.588;8.462;2023-07-20T05:27:06;0.40;;;0.40;;
11533;SDS011;5823;50.588;8.462;2023-07-20T05:29:33;0.35;;;0.35;;
11533;SDS011;5823;50.588;8.462;2023-07-20T05:32:00;0.20;;;0.20;;
11533;SDS011;5823;50.588;8.462;2023-07-20T05:34:27;0.20;;;0.20;;
11533;SDS011;5823;50.588;8.462;2023-07-20T05:36:54;0.13;;;0.13;;
11533;SDS011;5823;50.588;8.462;2023-07-20T05:39:20;0.20;;;0.20;;
11533;SDS011;5823;50.588;8.462;2023-07-20T05:41:47;0.20;;;0.20;;
11533;SDS011;5823;50.588;8.462;2023-07-20T05:44:13;0.10;;;0.10;;
11533;SDS011;5823;50.588;8.462;2023-07-20T05:46:39;0.45;;;0.45;;
11533;SDS011;5823;50.588;8.462;2023-07-20T05:49:07;0.40;;;0.40;;
11533;SDS011;5823;50.588;8.462;2023-07-20T05:51:33;0.32;;;0.32;;
11533;SDS011;5823;50.588;8.462;2023-07-20T05:53:59;0.60;;;0.50;;
11533;SDS011;5823;50.588;8.462;2023-07-20T05:56:26;0.40;;;0.40;;
11533;SDS011;5823;50.588;8.462;2023-07-20T05:58:52;0.22;;;0.22;;
11533;SDS011;5823;50.588;8.462;2023-07-20T06:01:18;0.30;;;0.30;;
11533;SDS011;5823;50.588;8.462;2023-07-20T06:03:45;0.20;;;0.20;;
11533;SDS011;5823;50.588;8.462;2023-07-20T06:06:12;0.43;;;0.40;;
11533;SDS011;5823;50.588;8.462;2023-07-20T06:08:40;0.55;;;0.52;;
11533;SDS011;5823;50.588;8.462;2023-07-20T06:11:06;0.32;;;0.32;;
11533;SDS011;5823;50.588;8.462;2023-07-20T06:13:32;0.30;;;0.30;;
11533;SDS011;5823;50.588;8.462;2023-07-20T06:15:58;0.17;;;0.17;;
11533;SDS011;5823;50.588;8.462;2023-07-20T06:18:24;0.20;;;0.20;;
11533;SDS011;5823;50.588;8.462;2023-07-20T06:20:51;0.32;;;0.32;;
11533;SDS011;5823;50.588;8.462;2023-07-20T06:23:19;0.32;;;0.32;;
11533;SDS011;5823;50.588;8.462;2023-07-20T06:25:45;0.38;;;0.38;;
11533;SDS011;5823;50.588;8.462;2023-07-20T06:28:12;0.40;;;0.40;;
11533;SDS011;5823;50.588;8.462;2023-07-20T06:30:39;0.25;;;0.25;;
11533;SDS011;5823;50.588;8.462;2023-07-20T06:33:05;0.45;;;0.45;;
11533;SDS011;5823;50.588;8.462;2023-07-20T06:35:32;0.30;;;0.30;;
11533;SDS011;5823;50.588;8.462;2023-07-20T06:37:58;0.30;;;0.30;;
11533;SDS011;5823;50.588;8.462;2023-07-20T06:40:26;0.40;;;0.40;;
11533;SDS011;5823;50.588;8.462;2023-07-20T06:42:53;0.38;;;0.38;;
11533;SDS011;5823;50.588;8.462;2023-07-20T06:45:19;0.60;;;0.60;;
11533;SDS011;5823;50.588;8.462;2023-07-20T06:47:45;0.70;;;0.60;;
11533;SDS011;5823;50.588;8.462;2023-07-20T06:50:11;0.30;;;0.30;;
11533;SDS011;5823;50.588;8.462;2023-07-20T06:52:38;0.10;;;0.10;;
11533;SDS011;5823;50.588;8.462;2023-07-20T06:55:05;0.32;;;0.32;;
11533;SDS011;5823;50.588;8.462;2023-07-20T06:57:32;0.32;;;0.32;;
11533;SDS011;5823;50.588;8.462;2023-07-20T06:59:59;0.73;;;0.73;;
11533;SDS011;5823;50.588;8.462;2023-07-20T07:02:25;0.55;;;0.55;;
11533;SDS011;5823;50.588;8.462;2023-07-20T07:04:51;0.30;;;0.30;;
11533;SDS011;5823;50.588;8.462;2023-07-20T07:07:17;0.22;;;0.22;;
11533;SDS011;5823;50.588;8.462;2023-07-20T07:09:44;0.35;;;0.30;;
11533;SDS011;5823;50.588;8.462;2023-07-20T07:12:10;0.38;;;0.38;;
11533;SDS011;5823;50.588;8.462;2023-07-20T07:14:37;0.77;;;0.77;;
11533;SDS011;5823;50.588;8.462;2023-07-20T07:17:04;0.50;;;0.50;;
11533;SDS011;5823;50.588;8.462;2023-07-20T07:19:31;0.65;;;0.65;;
11533;SDS011;5823;50.588;8.462;2023-07-20T07:21:57;0.98;;;0.98;;
11533;SDS011;5823;50.588;8.462;2023-07-20T07:24:23;0.77;;;0.77;;
11533;SDS011;5823;50.588;8.462;2023-07-20T07:26:49;0.90;;;0.90;;
11533;SDS011;5823;50.588;8.462;2023-07-20T07:29:16;0.95;;;0.95;;
11533;SDS011;5823;50.588;8.462;2023-07-20T07:31:43;0.90;;;0.90;;
11533;SDS011;5823;50.588;8.462;2023-07-20T07:34:10;1.27;;;1.17;;
11533;SDS011;5823;50.588;8.462;2023-07-20T07:36:36;0.90;;;0.90;;
11533;SDS011;5823;50.588;8.462;2023-07-20T07:39:02;1.30;;;1.20;;
11533;SDS011;5823;50.588;8.462;2023-07-20T07:41:28;1.00;;;0.90;;
11533;SDS011;5823;50.588;8.462;2023-07-20T07:43:55;1.00;;;0.90;;
11533;SDS011;5823;50.588;8.462;2023-07-20T07:46:21;0.70;;;0.70;;
11533;SDS011;5823;50.588;8.462;2023-07-20T07:48:48;0.75;;;0.75;;
11533;SDS011;5823;50.588;8.462;2023-07-20T07:51:15;0.60;;;0.60;;
11533;SDS011;5823;50.588;8.462;2023-07-20T07:53:41;1.10;;;0.82;;
11533;SDS011;5823;50.588;8.462;2023-07-20T07:56:08;0.63;;;0.63;;
11533;SDS011;5823;50.588;8.462;2023-07-20T07:58:35;1.45;;;0.80;;
11533;SDS011;5823;50.588;8.462;2023-07-20T08:01:01;0.28;;;0.28;;
11533;SDS011;5823;50.588;8.462;2023-07-20T08:03:27;0.98;;;0.88;;
11533;SDS011;5823;50.588;8.462;2023-07-20T08:05:55;0.80;;;0.80;;
11533;SDS011;5823;50.588;8.462;2023-07-20T08:08:21;1.60;;;1.30;;
11533;SDS011;5823;50.588;8.462;2023-07-20T08:10:47;1.10;;;1.00;;
11533;SDS011;5823;50.588;8.462;2023-07-20T08:13:14;1.55;;;1.02;;
11533;SDS011;5823;50.588;8.462;2023-07-20T08:15:45;0.60;;;0.60;;
11533;SDS011;5823;50.588;8.462;2023-07-20T08:18:11;0.90;;;0.90;;
11533;SDS011;5823;50.588;8.462;2023-07-20T08:20:38;1.17;;;1.08;;
11533;SDS011;5823;50.588;8.462;2023-07-20T08:23:05;1.10;;;1.00;;
11533;SDS011;5823;50.588;8.462;2023-07-20T08:25:31;0.90;;;0.90;;
11533;SDS011;5823;50.588;8.462;2023-07-20T08:27:58;0.80;;;0.80;;
11533;SDS011;5823;50.588;8.462;2023-07-20T08:30:25;1.00;;;1.00;;
11533;SDS011;5823;50.588;8.462;2023-07-20T08:32:52;0.82;;;0.82;;
11533;SDS011;5823;50.588;8.462;2023-07-20T08:35:18;0.68;;;0.68;;
11533;SDS011;5823;50.588;8.462;2023-07-20T08:37:44;0.63;;;0.63;;
11533;SDS011;5823;50.588;8.462;2023-07-20T08:40:12;0.68;;;0.68;;
11533;SDS011;5823;50.588;8.462;2023-07-20T08:42:39;0.70;;;0.70;;
11533;SDS011;5823;50.588;8.462;2023-07-20T08:45:06;0.43;;;0.43;;
11533;SDS011;5823;50.588;8.462;2023-07-20T08:47:34;0.65;;;0.65;;
11533;SDS011;5823;50.588;8.462;2023-07-20T08:50:01;0.90;;;0.90;;
11533;SDS011;5823;50.588;8.462;2023-07-20T08:52:32;0.77;;;0.77;;
11533;SDS011;5823;50.588;8.462;2023-07-20T08:54:59;0.68;;;0.68;;
11533;SDS011;5823;50.588;8.462;2023-07-20T08:57:29;0.60;;;0.60;;
11533;SDS011;5823;50.588;8.462;2023-07-20T08:59:57;0.70;;;0.70;;
11533;SDS011;5823;50.588;8.462;2023-07-20T09:02:25;0.68;;;0.68;;
11533;SDS011;5823;50.588;8.462;2023-07-20T09:04:51;0.63;;;0.63;;
11533;SDS011;5823;50.588;8.462;2023-07-20T09:07:18;0.80;;;0.80;;
11533;SDS011;5823;50.588;8.462;2023-07-20T09:09:45;0.60;;;0.60;;
11533;SDS011;5823;50.588;8.462;2023-07-20T09:12:14;0.50;;;0.50;;
11533;SDS011;5823;50.588;8.462;2023-07-20T09:14:43;0.73;;;0.73;;
11533;SDS011;5823;50.588;8.462;2023-07-20T09:17:12;0.45;;;0.45;;
11533;SDS011;5823;50.588;8.462;2023-07-20T09:19:38;0.60;;;0.60;;
11533;SDS011;5823;50.588;8.462;2023-07-20T09:22:05;0.60;;;0.60;;
11533;SDS011;5823;50.588;8.462;2023-07-20T09:24:31;0.60;;;0.60;;
11533;SDS011;5823;50.588;8.462;2023-07-20T09:26:57;0.40;;;0.40;;
11533;SDS011;5823;50.588;8.462;2023-07-20T09:29:28;0.52;;;0.52;;
11533;SDS011;5823;50.588;8.462;2023-07-20T09:32:00;0.50;;;0.50;;
11533;SDS011;5823;50.588;8.462;2023-07-20T09:34:26;0.40;;;0.40;;
11533;SDS011;5823;50.588;8.462;2023-07-20T09:36:52;0.22;;;0.22;;
11533;SDS011;5823;50.588;8.462;2023-07-20T09:39:19;0.60;;;0.60;;
11533;SDS011;5823;50.588;8.462;2023-07-20T09:41:46;0.60;;;0.60;;
11533;SDS011;5823;50.588;8.462;2023-07-20T09:44:13;0.80;;;0.80;;
11533;SDS011;5823;50.588;8.462;2023-07-20T09:46:43;0.50;;;0.50;;
11533;SDS011;5823;50.588;8.462;2023-07-20T09:49:11;0.50;;;0.50;;
11533;SDS011;5823;50.588;8.462;2023-07-20T09:51:38;0.70;;;0.70;;
11533;SDS011;5823;50.588;8.462;2023-07-20T09:54:04;0.20;;;0.20;;
11533;SDS011;5823;50.588;8.462;2023-07-20T09:56:30;0.50;;;0.50;;
11533;SDS011;5823;50.588;8.462;2023-07-20T09:58:57;0.50;;;0.50;;
11533;SDS011;5823;50.588;8.462;2023-07-20T10:01:23;0.57;;;0.57;;
11533;SDS011;5823;50.588;8.462;2023-07-20T10:03:50;0.60;;;0.60;;
11533;SDS011;5823;50.588;8.462;2023-07-20T10:06:20;0.80;;;0.80;;
11533;SDS011;5823;50.588;8.462;2023-07-20T10:08:49;1.35;;;0.60;;
11533;SDS011;5823;50.588;8.462;2023-07-20T10:11:18;0.35;;;0.35;;
11533;SDS011;5823;50.588;8.462;2023-07-20T10:13:44;0.40;;;0.40;;
11533;SDS011;5823;50.588;8.462;2023-07-20T10:16:14;0.55;;;0.55;;
11533;SDS011;5823;50.588;8.462;2023-07-20T10:18:41;0.40;;;0.40;;
11533;SDS011;5823;50.588;8.462;2023-07-20T10:21:11;0.60;;;0.60;;
11533;SDS011;5823;50.588;8.462;2023-07-20T10:23:39;0.60;;;0.60;;
11533;SDS011;5823;50.588;8.462;2023-07-20T10:26:06;0.60;;;0.60;;
11533;SDS011;5823;50.588;8.462;2023-07-20T10:28:33;0.40;;;0.40;;
11533;SDS011;5823;50.588;8.462;2023-07-20T10:30:59;0.60;;;0.60;;
11533;SDS011;5823;50.588;8.462;2023-07-20T10:33:26;0.60;;;0.60;;
11533;SDS011;5823;50.588;8.462;2023-07-20T10:35:53;0.40;;;0.40;;
11533;SDS011;5823;50.588;8.462;2023-07-20T10:38:19;0.40;;;0.40;;
11533;SDS011;5823;50.588;8.462;2023-07-20T10:40:55;0.20;;;0.20;;
11533;SDS011;5823;50.588;8.462;2023-07-20T10:43:21;0.32;;;0.32;;
11533;SDS011;5823;50.588;8.462;2023-07-20T10:45:48;0.20;;;0.20;;
11533;SDS011;5823;50.588;8.462;2023-07-20T10:48:15;0.43;;;0.43;;
11533;SDS011;5823;50.588;8.462;2023-07-20T10:50:42;0.40;;;0.40;;
11533;SDS011;5823;50.588;8.462;2023-07-20T10:53:12;0.50;;;0.50;;
11533;SDS011;5823;50.588;8.462;2023-07-20T10:55:39;0.47;;;0.47;;
11533;SDS011;5823;50.588;8.462;2023-07-20T10:58:07;0.85;;;0.85;;
11533;SDS011;5823;50.588;8.462;2023-07-20T11:00:34;0.60;;;0.60;;
11533;SDS011;5823;50.588;8.462;2023-07-20T11:03:00;0.50;;;0.50;;
11533;SDS011;5823;50.588;8.462;2023-07-20T11:05:33;1.05;;;0.80;;
11533;SDS011;5823;50.588;8.462;2023-07-20T11:08:03;0.77;;;0.77;;
11533;SDS011;5823;50.588;8.462;2023-07-20T11:10:29;0.40;;;0.40;;
11533;SDS011;5823;50.588;8.462;2023-07-20T11:15:48;0.60;;;0.60;;
11533;SDS011;5823;50.588;8.462;2023-07-20T11:18:14;0.43;;;0.43;;
11533;SDS011;5823;50.588;8.462;2023-07-20T11:20:40;0.63;;;0.63;;
11533;SDS011;5823;50.588;8.462;2023-07-20T11:23:07;0.60;;;0.60;;
11533;SDS011;5823;50.588;8.462;2023-07-20T11:25:38;0.40;;;0.40;;
11533;SDS011;5823;50.588;8.462;2023-07-20T11:28:06;0.55;;;0.55;;
11533;SDS011;5823;50.588;8.462;2023-07-20T11:30:32;0.60;;;0.60;;
11533;SDS011;5823;50.588;8.462;2023-07-20T11:33:00;0.60;;;0.60;;
11533;SDS011;5823;50.588;8.462;2023-07-20T11:35:26;0.47;;;0.47;;
11533;SDS011;5823;50.588;8.462;2023-07-20T11:37:52;0.50;;;0.50;;
11533;SDS011;5823;50.588;8.462;2023-07-20T11:40:19;0.50;;;0.50;;
11533;SDS011;5823;50.588;8.462;2023-07-20T11:42:45;0.35;;;0.35;;
11533;SDS011;5823;50.588;8.462;2023-07-20T11:45:11;0.32;;;0.32;;
11533;SDS011;5823;50.588;8.462;2023-07-20T11:47:39;0.50;;;0.50;;
11533;SDS011;5823;50.588;8.462;2023-07-20T11:50:08;0.50;;;0.50;;
11533;SDS011;5823;50.588;8.462;2023-07-20T11:52:36;0.50;;;0.50;;
11533;SDS011;5823;50.588;8.462;2023-07-20T11:55:02;0.70;;;0.70;;
11533;SDS011;5823;50.588;8.462;2023-07-20T11:57:29;0.80;;;0.80;;
11533;SDS011;5823;50.588;8.462;2023-07-20T11:59:55;0.80;;;0.80;;
11533;SDS011;5823;50.588;8.462;2023-07-20T12:02:24;1.00;;;0.90;;
11533;SDS011;5823;50.588;8.462;2023-07-20T12:04:51;0.88;;;0.88;;
11533;SDS011;5823;50.588;8.462;2023-07-20T12:07:19;0.60;;;0.60;;
11533;SDS011;5823;50.588;8.462;2023-07-20T12:09:45;0.60;;;0.60;;
11533;SDS011;5823;50.588;8.462;2023-07-20T12:12:28;0.50;;;0.50;;
11533;SDS011;5823;50.588;8.462;2023-07-20T12:14:54;0.70;;;0.70;;
11533;SDS011;5823;50.588;8.462;2023-07-20T12:17:20;0.57;;;0.57;;
11533;SDS011;5823;50.588;8.462;2023-07-20T12:19:47;0.55;;;0.55;;
11533;SDS011;5823;50.588;8.462;2023-07-20T12:22:13;0.55;;;0.55;;
11533;SDS011;5823;50.588;8.462;2023-07-20T12:24:41;0.80;;;0.80;;
11533;SDS011;5823;50.588;8.462;2023-07-20T12:27:07;0.75;;;0.75;;
11533;SDS011;5823;50.588;8.462;2023-07-20T12:29:33;0.73;;;0.73;;
11533;SDS011;5823;50.588;8.462;2023-07-20T12:32:01;0.70;;;0.70;;
11533;SDS011;5823;50.588;8.462;2023-07-20T12:34:27;0.75;;;0.75;;
11533;SDS011;5823;50.588;8.462;2023-07-20T12:36:53;0.70;;;0.70;;
11533;SDS011;5823;50.588;8.462;2023-07-20T12:39:21;0.68;;;0.68;;
11533;SDS011;5823;50.588;8.462;2023-07-20T12:41:48;0.60;;;0.60;;
11533;SDS011;5823;50.588;8.462;2023-07-20T12:44:14;0.70;;;0.70;;
11533;SDS011;5823;50.588;8.462;2023-07-20T12:46:41;0.40;;;0.40;;
11533;SDS011;5823;50.588;8.462;2023-07-20T12:49:07;0.30;;;0.30;;
11533;SDS011;5823;50.588;8.462;2023-07-20T12:51:33;0.35;;;0.35;;
11533;SDS011;5823;50.588;8.462;2023-07-20T12:53:59;0.55;;;0.55;;
11533;SDS011;5823;50.588;8.462;2023-07-20T12:56:26;0.40;;;0.40;;
11533;SDS011;5823;50.588;8.462;2023-07-20T12:58:53;0.52;;;0.52;;
11533;SDS011;5823;50.588;8.462;2023-07-20T13:01:19;0.50;;;0.50;;
11533;SDS011;5823;50.588;8.462;2023-07-20T13:03:46;0.60;;;0.60;;
11533;SDS011;5823;50.588;8.462;2023-07-20T13:06:12;0.50;;;0.50;;
11533;SDS011;5823;50.588;8.462;2023-07-20T13:08:38;0.80;;;0.50;;
11533;SDS011;5823;50.588;8.462;2023-07-20T13:11:04;0.50;;;0.50;;
11533;SDS011;5823;50.588;8.462;2023-07-20T13:13:31;0.60;;;0.60;;
11533;SDS011;5823;50.588;8.462;2023-07-20T13:15:58;0.70;;;0.70;;
11533;SDS011;5823;50.588;8.462;2023-07-20T13:18:25;0.73;;;0.73;;
11533;SDS011;5823;50.588;8.462;2023-07-20T13:20:51;0.70;;;0.70;;
11533;SDS011;5823;50.588;8.462;2023-07-20T13:23:17;0.38;;;0.38;;
11533;SDS011;5823;50.588;8.462;2023-07-20T13:25:43;0.63;;;0.63;;
11533;SDS011;5823;50.588;8.462;2023-07-20T13:28:09;0.40;;;0.40;;
11533;SDS011;5823;50.588;8.462;2023-07-20T13:30:36;0.47;;;0.47;;
11533;SDS011;5823;50.588;8.462;2023-07-20T13:33:03;0.43;;;0.43;;
11533;SDS011;5823;50.588;8.462;2023-07-20T13:35:29;0.82;;;0.47;;
11533;SDS011;5823;50.588;8.462;2023-07-20T13:37:56;0.55;;;0.50;;
11533;SDS011;5823;50.588;8.462;2023-07-20T13:40:22;0.70;;;0.70;;
11533;SDS011;5823;50.588;8.462;2023-07-20T13:42:49;0.80;;;0.35;;
11533;SDS011;5823;50.588;8.462;2023-07-20T13:45:15;0.60;;;0.60;;
11533;SDS011;5823;50.588;8.462;2023-07-20T13:47:42;0.40;;;0.40;;
11533;SDS011;5823;50.588;8.462;2023-07-20T13:50:11;0.50;;;0.50;;
11533;SDS011;5823;50.588;8.462;2023-07-20T13:52:37;0.60;;;0.60;;
11533;SDS011;5823;50.588;8.462;2023-07-20T13:55:03;0.40;;;0.40;;
11533;SDS011;5823;50.588;8.462;2023-07-20T13:57:30;0.38;;;0.38;;
11533;SDS011;5823;50.588;8.462;2023-07-20T13:59:57;0.22;;;0.22;;
11533;SDS011;5823;50.588;8.462;2023-07-20T14:02:25;0.68;;;0.68;;
11533;SDS011;5823;50.588;8.462;2023-07-20T14:04:51;0.70;;;0.70;;
11533;SDS011;5823;50.588;8.462;2023-07-20T14:07:22;0.50;;;0.50;;
11533;SDS011;5823;50.588;8.462;2023-07-20T14:09:48;0.32;;;0.32;;
11533;SDS011;5823;50.588;8.462;2023-07-20T14:12:14;0.40;;;0.40;;
11533;SDS011;5823;50.588;8.462;2023-07-20T14:14:41;0.40;;;0.40;;
11533;SDS011;5823;50.588;8.462;2023-07-20T14:17:07;0.40;;;0.40;;
11533;SDS011;5823;50.588;8.462;2023-07-20T14:19:33;0.30;;;0.30;;
11533;SDS011;5823;50.588;8.462;2023-07-20T14:21:59;0.50;;;0.50;;
11533;SDS011;5823;50.588;8.462;2023-07-20T14:24:27;0.32;;;0.32;;
11533;SDS011;5823;50.588;8.462;2023-07-20T14:26:53;0.17;;;0.17;;
11533;SDS011;5823;50.588;8.462;2023-07-20T14:29:20;0.30;;;0.30;;
11533;SDS011;5823;50.588;8.462;2023-07-20T14:31:46;0.30;;;0.30;;
11533;SDS011;5823;50.588;8.462;2023-07-20T14:34:15;0.20;;;0.20;;
11533;SDS011;5823;50.588;8.462;2023-07-20T14:36:41;0.52;;;0.52;;
11533;SDS011;5823;50.588;8.462;2023-07-20T14:39:07;0.57;;;0.50;;
11533;SDS011;5823;50.588;8.462;2023-07-20T14:41:35;0.50;;;0.50;;
11533;SDS011;5823;50.588;8.462;2023-07-20T14:44:02;0.20;;;0.20;;
11533;SDS011;5823;50.588;8.462;2023-07-20T14:46:28;0.40;;;0.40;;
11533;SDS011;5823;50.588;8.462;2023-07-20T14:48:54;0.38;;;0.38;;
11533;SDS011;5823;50.588;8.462;2023-07-20T14:51:20;0.20;;;0.20;;
11533;SDS011;5823;50.588;8.462;2023-07-20T14:53:47;0.32;;;0.32;;
11533;SDS011;5823;50.588;8.462;2023-07-20T14:56:13;0.20;;;0.20;;
11533;SDS011;5823;50.588;8.462;2023-07-20T14:58:40;0.15;;;0.15;;
11533;SDS011;5823;50.588;8.462;2023-07-20T15:01:07;0.40;;;0.40;;
11533;SDS011;5823;50.588;8.462;2023-07-20T15:03:33;0.40;;;0.40;;